Time;durP1;ratioP1;P1;durP2;ratioP2;P2;SDS_P1;SDS_P2;PMS_P1;PMS_P2;Temp;Humidity;BMP_temperature;BMP_pressure;BME280_temperature;BME280_humidity;BME280_pressure;Samples;Min_cycle;Max_cycle;Signal;HPM_P1;HPM_P2
2023/12/06 00:02:07;;;;;;;11.82;6.32;;;2.60;99.90;;;;;;4721225;30;20515;-53
2023/12/06 00:04:34;;;;;;;18.92;6.93;;;2.50;99.90;;;;;;4728909;30;20495;-54
2023/12/06 00:07:02;;;;;;;14.13;6.63;;;2.60;99.90;;;;;;4729619;30;20102;-51
2023/12/06 00:09:29;;;;;;;10.93;6.65;;;2.50;99.90;;;;;;4727421;30;20519;-56
2023/12/06 00:11:56;;;;;;;15.05;7.32;;;2.40;99.90;;;;;;4730991;30;20057;-51
2023/12/06 00:14:23;;;;;;;13.27;6.78;;;2.50;99.90;;;;;;4728378;30;20068;-51
2023/12/06 00:16:50;;;;;;;11.82;6.88;;;2.50;99.90;;;;;;4729389;30;20231;-52
2023/12/06 00:19:17;;;;;;;11.10;6.88;;;2.50;99.90;;;;;;4729721;30;20083;-54
2023/12/06 00:21:44;;;;;;;13.57;7.88;;;2.40;99.90;;;;;;4728787;30;20063;-55
2023/12/06 00:24:11;;;;;;;10.88;6.88;;;2.40;99.90;;;;;;4723450;30;20114;-55
2023/12/06 00:26:42;;;;;;;13.70;7.32;;;2.40;99.90;;;;;;4731323;30;20052;-58
2023/12/06 00:29:09;;;;;;;12.40;6.85;;;2.40;99.90;;;;;;4730191;30;20883;-51
2023/12/06 00:31:36;;;;;;;15.45;7.75;;;2.40;99.90;;;;;;4730041;30;20200;-53
2023/12/06 00:34:03;;;;;;;13.02;7.35;;;2.40;99.90;;;;;;4729543;30;20059;-49
2023/12/06 00:36:31;;;;;;;13.82;7.43;;;2.30;99.90;;;;;;4728961;30;20064;-52
2023/12/06 00:38:58;;;;;;;14.90;7.93;;;2.40;99.90;;;;;;4731146;30;20055;-50
2023/12/06 00:41:25;;;;;;;11.95;7.60;;;2.40;99.90;;;;;;4725124;30;20060;-53
2023/12/06 00:43:53;;;;;;;12.82;7.95;;;2.30;99.90;;;;;;4712523;30;20055;-50
2023/12/06 00:46:21;;;;;;;15.23;8.50;;;2.30;99.90;;;;;;4730719;30;20122;-51
2023/12/06 00:48:48;;;;;;;13.70;7.88;;;2.30;99.90;;;;;;4729810;30;20055;-52
2023/12/06 00:51:15;;;;;;;12.93;8.40;;;2.30;99.90;;;;;;4728725;30;20080;-51
2023/12/06 00:53:42;;;;;;;15.60;8.73;;;2.20;99.90;;;;;;4729690;30;20140;-54
2023/12/06 00:56:13;;;;;;;14.35;7.97;;;2.20;99.90;;;;;;4728734;30;20605;-52
2023/12/06 00:58:44;;;;;;;14.35;8.43;;;2.30;99.90;;;;;;4730436;30;20137;-56
2023/12/06 01:01:12;;;;;;;16.13;8.55;;;2.30;99.90;;;;;;4730424;30;20044;-55
2023/12/06 01:03:40;;;;;;;12.38;8.43;;;2.20;99.90;;;;;;4729759;30;20044;-56
2023/12/06 01:06:08;;;;;;;12.35;7.70;;;2.30;99.90;;;;;;4729057;30;20041;-50
2023/12/06 01:08:35;;;;;;;13.45;8.00;;;2.30;99.90;;;;;;4713781;30;20091;-50
2023/12/06 01:11:03;;;;;;;12.52;8.32;;;2.20;99.90;;;;;;4727662;30;20094;-49
2023/12/06 01:13:30;;;;;;;13.55;8.55;;;2.30;99.90;;;;;;4713053;30;20071;-55
2023/12/06 01:15:57;;;;;;;13.63;8.25;;;2.20;99.90;;;;;;4728203;30;20181;-55
2023/12/06 01:18:24;;;;;;;14.95;8.57;;;2.20;99.90;;;;;;4728817;30;20061;-50
2023/12/06 01:20:52;;;;;;;12.45;7.80;;;2.20;99.90;;;;;;4728575;30;20072;-52
2023/12/06 01:23:19;;;;;;;14.02;8.00;;;2.20;99.90;;;;;;4728814;30;20053;-54
2023/12/06 01:25:46;;;;;;;11.93;7.72;;;2.20;99.90;;;;;;4728862;30;20058;-52
2023/12/06 01:28:13;;;;;;;12.70;7.75;;;2.20;99.90;;;;;;4729272;30;20053;-48
2023/12/06 01:30:40;;;;;;;12.85;8.02;;;2.10;99.90;;;;;;4728712;30;20048;-51
2023/12/06 01:33:08;;;;;;;11.43;7.22;;;2.10;99.90;;;;;;4713645;30;20059;-50
2023/12/06 01:35:35;;;;;;;16.80;8.32;;;2.10;99.90;;;;;;4728915;30;20490;-50
2023/12/06 01:38:02;;;;;;;10.57;7.10;;;2.10;99.90;;;;;;4728116;30;20061;-47
2023/12/06 01:40:29;;;;;;;13.05;7.80;;;2.00;99.90;;;;;;4729119;30;20048;-50
2023/12/06 01:42:56;;;;;;;13.15;7.72;;;2.00;99.90;;;;;;4711324;30;20166;-50
2023/12/06 01:45:23;;;;;;;12.40;8.23;;;1.90;99.90;;;;;;4729305;30;20064;-50
2023/12/06 01:47:53;;;;;;;13.18;8.25;;;2.00;99.90;;;;;;4728942;30;20083;-49
2023/12/06 01:50:21;;;;;;;12.77;8.00;;;2.00;99.90;;;;;;4713230;30;20172;-47
2023/12/06 01:52:48;;;;;;;14.52;8.02;;;1.90;99.90;;;;;;4728724;30;20148;-54
2023/12/06 01:55:15;;;;;;;12.18;7.93;;;1.90;99.90;;;;;;4733003;30;20088;-50
2023/12/06 01:57:43;;;;;;;12.45;7.82;;;1.90;99.90;;;;;;4713854;30;20060;-52
2023/12/06 02:00:11;;;;;;;11.35;8.10;;;1.90;99.90;;;;;;4730923;30;20587;-50
2023/12/06 02:02:38;;;;;;;12.73;8.35;;;1.90;99.90;;;;;;4713285;30;20055;-54
2023/12/06 02:05:06;;;;;;;11.68;7.75;;;1.90;99.90;;;;;;4727451;30;20080;-52
2023/12/06 02:07:34;;;;;;;15.38;8.90;;;1.80;99.90;;;;;;4710938;30;20341;-51
2023/12/06 02:10:03;;;;;;;11.98;8.25;;;1.80;99.90;;;;;;4726333;30;20061;-53
2023/12/06 02:12:31;;;;;;;11.35;8.00;;;1.80;99.90;;;;;;4728308;30;20127;-50
2023/12/06 02:14:59;;;;;;;13.88;8.15;;;1.80;99.90;;;;;;4732382;30;20048;-53
2023/12/06 02:17:27;;;;;;;11.90;7.60;;;1.90;99.90;;;;;;4710993;30;20049;-48
2023/12/06 02:19:56;;;;;;;13.00;8.35;;;1.90;99.90;;;;;;4711591;30;20056;-52
2023/12/06 02:22:24;;;;;;;11.23;7.85;;;1.90;99.90;;;;;;4728082;30;20404;-47
2023/12/06 02:24:56;;;;;;;13.77;8.40;;;1.90;99.90;;;;;;4712659;30;20053;-51
2023/12/06 02:27:23;;;;;;;13.23;8.75;;;1.90;99.90;;;;;;4712680;30;20060;-53
2023/12/06 02:29:51;;;;;;;15.40;9.05;;;1.90;99.90;;;;;;4719305;30;20122;-52
2023/12/06 02:32:18;;;;;;;12.15;7.57;;;1.90;99.90;;;;;;4727536;30;20053;-55
2023/12/06 02:34:48;;;;;;;14.90;8.70;;;1.90;99.90;;;;;;4712101;30;20060;-50
2023/12/06 02:37:19;;;;;;;12.75;8.20;;;1.90;99.90;;;;;;4715018;30;20056;-52
2023/12/06 02:39:47;;;;;;;12.82;7.97;;;1.90;99.90;;;;;;4728107;30;20063;-55
2023/12/06 02:42:15;;;;;;;12.07;7.68;;;2.00;99.90;;;;;;4717061;30;20144;-51
2023/12/06 02:44:42;;;;;;;15.30;8.38;;;2.00;99.90;;;;;;4726467;30;20133;-53
2023/12/06 02:47:10;;;;;;;13.57;8.30;;;2.00;99.90;;;;;;4729882;30;20127;-50
2023/12/06 02:49:37;;;;;;;13.02;8.07;;;2.00;99.90;;;;;;4719984;30;20457;-51
2023/12/06 02:52:05;;;;;;;11.68;7.55;;;2.00;99.90;;;;;;4727852;30;20083;-47
2023/12/06 02:54:32;;;;;;;11.90;7.85;;;2.00;99.90;;;;;;4728960;30;20655;-49
2023/12/06 02:56:59;;;;;;;11.07;7.15;;;2.00;99.90;;;;;;4723045;30;20490;-46
2023/12/06 02:59:26;;;;;;;11.55;7.57;;;2.10;99.90;;;;;;4713484;30;20486;-52
2023/12/06 03:01:53;;;;;;;12.32;7.75;;;2.00;99.90;;;;;;4696235;30;20065;-50
2023/12/06 03:04:21;;;;;;;12.18;7.78;;;2.00;99.90;;;;;;4726949;30;20137;-48
2023/12/06 03:06:48;;;;;;;17.15;8.43;;;2.10;99.90;;;;;;4727778;30;20049;-50
2023/12/06 03:09:15;;;;;;;13.13;8.20;;;2.10;99.90;;;;;;4726996;30;20095;-53
2023/12/06 03:11:42;;;;;;;12.38;8.15;;;2.10;99.90;;;;;;4722355;30;20049;-48
2023/12/06 03:14:09;;;;;;;12.68;8.02;;;2.10;99.90;;;;;;4728393;30;20071;-50
2023/12/06 03:16:36;;;;;;;13.52;7.90;;;2.10;99.90;;;;;;4719327;30;20045;-48
2023/12/06 03:19:03;;;;;;;13.85;8.10;;;2.20;99.90;;;;;;4699033;30;20063;-45
2023/12/06 03:21:30;;;;;;;14.63;8.45;;;2.10;99.90;;;;;;4719515;30;20057;-47
2023/12/06 03:23:58;;;;;;;13.10;8.75;;;2.10;99.90;;;;;;4728906;30;20511;-51
2023/12/06 03:26:25;;;;;;;14.65;8.82;;;2.10;99.90;;;;;;4728803;30;20128;-48
2023/12/06 03:28:52;;;;;;;12.57;8.27;;;2.10;99.90;;;;;;4727446;30;20135;-52
2023/12/06 03:31:19;;;;;;;13.07;7.93;;;2.10;99.90;;;;;;4726199;30;20056;-51
2023/12/06 03:33:47;;;;;;;13.15;7.60;;;2.20;99.90;;;;;;4724660;30;20528;-51
2023/12/06 03:36:14;;;;;;;11.63;7.65;;;2.20;99.90;;;;;;4725482;30;20057;-54
2023/12/06 03:38:41;;;;;;;13.10;7.90;;;2.10;99.90;;;;;;4727360;30;20135;-50
2023/12/06 03:41:08;;;;;;;12.65;7.68;;;2.20;99.90;;;;;;4711232;30;20053;-49
2023/12/06 03:43:35;;;;;;;11.90;7.63;;;2.20;99.90;;;;;;4724682;30;20128;-47
2023/12/06 03:46:03;;;;;;;11.05;7.13;;;2.30;99.90;;;;;;4713473;30;20052;-53
2023/12/06 03:48:30;;;;;;;13.30;7.95;;;2.30;99.90;;;;;;4703966;30;20523;-51
2023/12/06 03:50:57;;;;;;;12.20;7.55;;;2.30;99.90;;;;;;4728240;30;20057;-51
2023/12/06 03:53:24;;;;;;;12.27;6.90;;;2.20;99.90;;;;;;4727451;30;20060;-48
2023/12/06 03:55:51;;;;;;;12.10;7.10;;;2.30;99.90;;;;;;4729380;30;20597;-47
2023/12/06 03:58:21;;;;;;;10.82;7.15;;;2.30;99.90;;;;;;4722349;30;20501;-48
2023/12/06 04:00:48;;;;;;;10.20;6.80;;;2.30;99.90;;;;;;4728285;30;20545;-50
2023/12/06 04:03:15;;;;;;;10.57;6.63;;;2.30;99.90;;;;;;4714599;30;20500;-47
2023/12/06 04:05:42;;;;;;;10.38;6.47;;;2.30;99.90;;;;;;4732861;30;20093;-51
2023/12/06 04:08:11;;;;;;;13.13;6.63;;;2.30;99.90;;;;;;4715009;30;20053;-51
2023/12/06 04:10:38;;;;;;;11.82;7.80;;;2.40;99.90;;;;;;4727722;30;20048;-51
2023/12/06 04:13:05;;;;;;;11.23;7.10;;;2.40;99.90;;;;;;4731063;30;20056;-52
2023/12/06 04:15:32;;;;;;;12.88;7.30;;;2.30;99.90;;;;;;4730878;30;20190;-52
2023/12/06 04:17:59;;;;;;;12.50;7.13;;;2.30;99.90;;;;;;4729881;30;20172;-48
2023/12/06 04:20:27;;;;;;;11.65;7.13;;;2.30;99.90;;;;;;4725450;30;20084;-51
2023/12/06 04:22:54;;;;;;;14.27;6.90;;;2.30;99.90;;;;;;4729106;30;20067;-56
2023/12/06 04:25:21;;;;;;;13.65;7.68;;;2.30;99.90;;;;;;4713448;30;21955;-52
2023/12/06 04:27:49;;;;;;;10.82;6.38;;;2.40;99.90;;;;;;4728799;30;20132;-47
2023/12/06 04:30:16;;;;;;;11.63;6.85;;;2.40;99.90;;;;;;4728790;30;20439;-53
2023/12/06 04:32:43;;;;;;;9.75;6.47;;;2.40;99.90;;;;;;4730815;30;20045;-57
2023/12/06 04:35:11;;;;;;;9.10;6.22;;;2.40;99.90;;;;;;4712831;30;20522;-52
2023/12/06 04:37:38;;;;;;;12.63;6.47;;;2.30;99.90;;;;;;4732312;30;20419;-50
2023/12/06 04:40:07;;;;;;;9.50;5.80;;;2.30;99.90;;;;;;4709041;30;20117;-50
2023/12/06 04:42:34;;;;;;;9.35;6.10;;;2.20;99.90;;;;;;4732146;30;20098;-50
2023/12/06 04:45:02;;;;;;;9.30;5.70;;;2.20;99.90;;;;;;4729013;30;20160;-53
2023/12/06 04:47:29;;;;;;;8.65;5.50;;;2.20;99.90;;;;;;4727502;30;20056;-52
2023/12/06 04:49:56;;;;;;;9.07;5.78;;;2.20;99.90;;;;;;4691659;30;20055;-50
2023/12/06 04:52:24;;;;;;;9.85;6.30;;;2.20;99.90;;;;;;4712313;30;20423;-53
2023/12/06 04:54:51;;;;;;;8.05;5.22;;;2.10;99.90;;;;;;4713828;30;20413;-48
2023/12/06 04:57:19;;;;;;;8.80;5.72;;;2.10;99.90;;;;;;4711653;30;20444;-54
2023/12/06 04:59:47;;;;;;;8.20;5.15;;;2.10;99.90;;;;;;4731035;30;20070;-51
2023/12/06 05:02:14;;;;;;;9.27;5.53;;;2.10;99.90;;;;;;4729689;30;20115;-51
2023/12/06 05:04:41;;;;;;;9.50;5.90;;;2.10;99.90;;;;;;4714211;30;20554;-50
2023/12/06 05:07:09;;;;;;;8.93;5.65;;;2.10;99.90;;;;;;4728859;30;20571;-55
2023/12/06 05:09:36;;;;;;;9.20;5.75;;;2.10;99.90;;;;;;4719740;30;20136;-50
2023/12/06 05:12:03;;;;;;;8.90;5.68;;;2.10;99.90;;;;;;4729924;30;20139;-51
2023/12/06 05:14:30;;;;;;;8.73;5.60;;;2.10;99.90;;;;;;4731530;30;20056;-56
2023/12/06 05:16:57;;;;;;;8.70;5.40;;;2.10;99.90;;;;;;4714129;30;20112;-49
2023/12/06 05:19:24;;;;;;;9.15;5.88;;;2.10;99.90;;;;;;4712771;30;20045;-51
2023/12/06 05:21:53;;;;;;;10.25;6.30;;;2.10;99.90;;;;;;4730140;30;20052;-51
2023/12/06 05:24:20;;;;;;;10.60;6.38;;;2.10;99.90;;;;;;4727649;30;20083;-52
2023/12/06 05:26:47;;;;;;;10.63;5.70;;;2.10;99.90;;;;;;4729633;30;20454;-52
2023/12/06 05:29:15;;;;;;;9.38;5.82;;;2.10;99.90;;;;;;4729371;30;20090;-49
2023/12/06 05:31:42;;;;;;;10.45;6.00;;;2.10;99.90;;;;;;4728047;30;20056;-49
2023/12/06 05:34:09;;;;;;;9.50;5.90;;;2.10;99.90;;;;;;4698943;30;20140;-49
2023/12/06 05:36:36;;;;;;;7.75;5.35;;;2.10;99.90;;;;;;4719731;30;20498;-48
2023/12/06 05:39:05;;;;;;;8.63;5.60;;;2.10;99.90;;;;;;4728859;30;20153;-49
2023/12/06 05:41:32;;;;;;;9.88;5.88;;;2.20;99.90;;;;;;4730058;30;20480;-50
2023/12/06 05:43:59;;;;;;;10.38;6.32;;;2.20;99.90;;;;;;4726987;30;20504;-48
2023/12/06 05:46:26;;;;;;;10.35;6.45;;;2.20;99.90;;;;;;4728886;30;20145;-52
2023/12/06 05:48:53;;;;;;;10.52;6.32;;;2.20;99.90;;;;;;4716620;30;20110;-52
2023/12/06 05:51:21;;;;;;;10.70;7.00;;;2.20;99.90;;;;;;4712917;30;20057;-47
2023/12/06 05:53:49;;;;;;;11.90;6.55;;;2.30;99.90;;;;;;4728780;30;20067;-52
2023/12/06 05:56:16;;;;;;;10.63;6.72;;;2.30;99.90;;;;;;4724139;30;20472;-47
2023/12/06 05:58:43;;;;;;;13.63;7.43;;;2.30;99.90;;;;;;4715076;30;20544;-52
2023/12/06 06:01:10;;;;;;;11.07;6.93;;;2.30;99.90;;;;;;4732994;30;20087;-52
2023/12/06 06:03:38;;;;;;;13.70;6.85;;;2.30;99.90;;;;;;4715368;30;20206;-50
2023/12/06 06:06:07;;;;;;;12.90;6.70;;;2.30;99.90;;;;;;4712457;30;20045;-48
2023/12/06 06:08:35;;;;;;;11.93;6.97;;;2.30;99.90;;;;;;4711472;30;20574;-50
2023/12/06 06:11:02;;;;;;;11.18;7.07;;;2.30;99.90;;;;;;4711497;30;20057;-52
2023/12/06 06:13:30;;;;;;;16.27;7.78;;;2.30;99.90;;;;;;4723323;30;20071;-49
2023/12/06 06:15:57;;;;;;;12.38;7.65;;;2.30;99.90;;;;;;4708869;30;20053;-49
2023/12/06 06:18:25;;;;;;;13.18;7.13;;;2.40;99.90;;;;;;4720572;30;20129;-52
2023/12/06 06:20:52;;;;;;;12.25;7.13;;;2.40;99.90;;;;;;4725599;30;20057;-49
2023/12/06 06:23:19;;;;;;;10.93;7.00;;;2.40;99.90;;;;;;4727370;30;20083;-51
2023/12/06 06:25:46;;;;;;;13.85;6.93;;;2.50;99.90;;;;;;4711096;30;20131;-47
2023/12/06 06:28:13;;;;;;;10.82;6.63;;;2.40;99.90;;;;;;4710936;30;20048;-52
2023/12/06 06:30:41;;;;;;;13.07;7.22;;;2.40;99.90;;;;;;4726847;30;20159;-50
2023/12/06 06:33:08;;;;;;;15.07;7.47;;;2.50;99.90;;;;;;4727550;30;20534;-46
2023/12/06 06:35:36;;;;;;;11.10;6.45;;;2.50;99.90;;;;;;4727770;30;20049;-53
2023/12/06 06:38:03;;;;;;;11.98;6.63;;;2.50;99.90;;;;;;4713019;30;20057;-53
2023/12/06 06:40:30;;;;;;;10.63;5.97;;;2.50;99.90;;;;;;4710864;30;20060;-55
2023/12/06 06:42:57;;;;;;;9.90;6.20;;;2.60;99.90;;;;;;4709604;30;20080;-50
2023/12/06 06:45:24;;;;;;;10.82;5.85;;;2.50;99.90;;;;;;4712197;30;20136;-52
2023/12/06 06:47:52;;;;;;;11.65;5.72;;;2.50;99.90;;;;;;4710331;30;20131;-54
2023/12/06 06:50:19;;;;;;;10.25;5.97;;;2.50;99.90;;;;;;4708185;30;20508;-53
2023/12/06 06:52:48;;;;;;;12.02;5.45;;;2.50;99.90;;;;;;4717572;30;20055;-52
2023/12/06 06:55:15;;;;;;;13.52;5.43;;;2.50;99.90;;;;;;4719948;30;20057;-50
2023/12/06 06:57:42;;;;;;;9.95;4.50;;;2.50;99.90;;;;;;4720542;30;20124;-50
2023/12/06 07:00:10;;;;;;;8.32;4.68;;;2.50;99.90;;;;;;4726095;30;20525;-53
2023/12/06 07:02:38;;;;;;;7.38;4.32;;;2.60;99.90;;;;;;4725921;30;20053;-48
2023/12/06 07:05:06;;;;;;;10.32;4.60;;;2.60;99.90;;;;;;4727139;30;20139;-49
2023/12/06 07:07:34;;;;;;;6.30;4.18;;;2.60;99.90;;;;;;4726206;30;20120;-49
2023/12/06 07:10:04;;;;;;;6.88;4.38;;;2.60;99.90;;;;;;4710953;30;20059;-49
2023/12/06 07:12:32;;;;;;;6.88;4.20;;;2.50;99.90;;;;;;4724470;30;20061;-52
2023/12/06 07:14:59;;;;;;;7.35;4.57;;;2.60;99.90;;;;;;4728180;30;20581;-52
2023/12/06 07:17:26;;;;;;;7.63;4.20;;;2.60;99.90;;;;;;4725370;30;20519;-50
2023/12/06 07:19:54;;;;;;;7.00;4.15;;;2.60;99.90;;;;;;4719813;30;20041;-52
2023/12/06 07:22:22;;;;;;;6.82;4.00;;;2.60;99.90;;;;;;4723271;30;20045;-55
2023/12/06 07:24:49;;;;;;;6.38;4.20;;;2.60;99.90;;;;;;4726895;30;20049;-52
2023/12/06 07:27:17;;;;;;;7.03;3.67;;;2.60;99.90;;;;;;4729782;30;20048;-51
2023/12/06 07:29:44;;;;;;;5.88;3.83;;;2.60;99.90;;;;;;4724431;30;20067;-50
2023/12/06 07:32:11;;;;;;;7.10;4.50;;;2.60;99.90;;;;;;4725670;30;20131;-51
2023/12/06 07:34:38;;;;;;;5.75;3.88;;;2.60;99.90;;;;;;4722061;30;20514;-52
2023/12/06 07:37:17;;;;;;;6.57;3.90;;;2.70;99.90;;;;;;4713549;30;20503;-50
2023/12/06 07:39:44;;;;;;;7.93;4.65;;;2.70;99.90;;;;;;4728399;30;20056;-48
2023/12/06 07:42:11;;;;;;;6.35;4.00;;;2.70;99.90;;;;;;4730853;30;20057;-53
2023/12/06 07:44:38;;;;;;;8.38;3.97;;;2.70;99.90;;;;;;4728944;30;20108;-48
2023/12/06 07:47:05;;;;;;;7.05;4.45;;;2.70;99.90;;;;;;4728735;30;20576;-52
2023/12/06 07:49:33;;;;;;;6.75;3.78;;;2.70;99.90;;;;;;4728010;30;20478;-49
2023/12/06 07:52:00;;;;;;;8.27;4.00;;;2.80;99.90;;;;;;4731169;30;20064;-49
2023/12/06 07:54:27;;;;;;;6.45;3.50;;;2.90;99.90;;;;;;4726391;30;20427;-51
2023/12/06 07:56:55;;;;;;;7.28;3.55;;;2.80;99.90;;;;;;4727548;30;20056;-48
2023/12/06 07:59:22;;;;;;;31.05;17.45;;;2.80;99.90;;;;;;4726173;30;20125;-50
2023/12/06 08:01:50;;;;;;;9.10;4.55;;;2.90;99.90;;;;;;4728164;30;20115;-49
2023/12/06 08:04:18;;;;;;;7.38;3.80;;;2.90;99.90;;;;;;4727903;30;20071;-48
2023/12/06 08:06:45;;;;;;;5.20;3.53;;;2.90;99.90;;;;;;4711229;30;20053;-48
2023/12/06 08:09:12;;;;;;;7.45;3.78;;;2.90;99.90;;;;;;4722887;30;20045;-54
2023/12/06 08:11:41;;;;;;;5.80;3.40;;;3.00;99.90;;;;;;4728838;30;20149;-52
2023/12/06 08:14:09;;;;;;;4.28;3.00;;;3.00;99.90;;;;;;4729696;30;20369;-50
2023/12/06 08:16:36;;;;;;;6.28;3.63;;;3.00;99.90;;;;;;4716703;30;20059;-47
2023/12/06 08:19:03;;;;;;;5.75;3.45;;;2.90;99.90;;;;;;4729215;30;20070;-50
2023/12/06 08:21:31;;;;;;;6.07;3.60;;;3.00;99.90;;;;;;4710574;30;20056;-48
2023/12/06 08:23:58;;;;;;;5.63;3.50;;;3.00;99.90;;;;;;4727484;30;20053;-50
2023/12/06 08:26:25;;;;;;;7.57;4.53;;;3.00;99.90;;;;;;4732309;30;20048;-50
2023/12/06 08:28:52;;;;;;;5.93;3.70;;;3.00;99.90;;;;;;4714224;30;20456;-50
2023/12/06 08:31:20;;;;;;;6.53;3.33;;;3.00;99.90;;;;;;4713850;30;20122;-49
2023/12/06 08:33:47;;;;;;;6.40;3.60;;;3.00;99.90;;;;;;4724226;30;20052;-53
2023/12/06 08:36:15;;;;;;;4.90;3.45;;;3.00;99.90;;;;;;4715497;30;20593;-53
2023/12/06 08:38:44;;;;;;;5.47;3.45;;;3.00;99.90;;;;;;4729076;30;20063;-50
2023/12/06 08:41:11;;;;;;;6.47;3.10;;;3.00;99.90;;;;;;4728786;30;20136;-52
2023/12/06 08:43:39;;;;;;;5.22;3.30;;;3.00;99.90;;;;;;4719171;30;20137;-54
2023/12/06 08:46:07;;;;;;;5.50;3.45;;;3.00;99.90;;;;;;4729746;30;20097;-49
2023/12/06 08:48:34;;;;;;;7.50;3.70;;;3.00;99.90;;;;;;4729721;30;20064;-51
2023/12/06 08:51:02;;;;;;;8.77;3.80;;;3.00;99.90;;;;;;4713394;30;20060;-53
2023/12/06 08:53:29;;;;;;;7.45;4.43;;;3.00;99.90;;;;;;4729204;30;20060;-50
2023/12/06 08:55:56;;;;;;;6.63;4.20;;;3.00;99.90;;;;;;4727917;30;20079;-47
2023/12/06 08:58:24;;;;;;;7.60;4.07;;;3.10;99.90;;;;;;4718781;30;20100;-52
2023/12/06 09:00:51;;;;;;;7.28;3.40;;;3.10;99.90;;;;;;4729436;30;20045;-49
2023/12/06 09:03:19;;;;;;;6.22;3.60;;;3.10;99.90;;;;;;4728950;30;20511;-49
2023/12/06 09:05:47;;;;;;;6.10;3.63;;;3.10;99.90;;;;;;4728029;30;20447;-53
2023/12/06 09:08:15;;;;;;;4.85;3.13;;;3.20;99.90;;;;;;4726922;30;20056;-48
2023/12/06 09:10:42;;;;;;;6.57;3.42;;;3.20;99.90;;;;;;4726070;30;20078;-49
2023/12/06 09:13:09;;;;;;;8.98;4.50;;;3.20;99.90;;;;;;4726976;30;20059;-46
2023/12/06 09:15:36;;;;;;;5.88;3.40;;;3.30;99.90;;;;;;4728873;30;20147;-52
2023/12/06 09:18:03;;;;;;;6.05;3.78;;;3.20;99.90;;;;;;4726965;30;20064;-51
2023/12/06 09:20:31;;;;;;;7.63;4.20;;;3.30;99.90;;;;;;4712857;30;20123;-49
2023/12/06 09:22:58;;;;;;;6.22;4.07;;;3.30;99.90;;;;;;4726564;30;20188;-50
2023/12/06 09:25:26;;;;;;;6.63;4.30;;;3.30;99.90;;;;;;4713608;30;20052;-47
2023/12/06 09:27:53;;;;;;;5.57;4.03;;;3.30;99.90;;;;;;4733853;30;20080;-51
2023/12/06 09:30:20;;;;;;;9.10;4.43;;;3.40;99.90;;;;;;4731091;30;20049;-54
2023/12/06 09:32:47;;;;;;;8.20;4.13;;;3.50;99.90;;;;;;4729515;30;20051;-50
2023/12/06 09:35:14;;;;;;;7.80;4.45;;;3.40;99.90;;;;;;4726806;30;20064;-48
2023/12/06 09:37:43;;;;;;;6.60;4.50;;;3.40;99.90;;;;;;4730494;30;20075;-48
2023/12/06 09:40:11;;;;;;;8.73;4.47;;;3.50;99.90;;;;;;4727046;30;20160;-50
2023/12/06 09:42:43;;;;;;;8.32;5.38;;;3.50;99.90;;;;;;4713494;30;20145;-50
2023/12/06 09:45:13;;;;;;;8.23;4.30;;;3.50;99.90;;;;;;4727507;30;20076;-50
2023/12/06 09:47:42;;;;;;;15.88;8.70;;;3.50;99.90;;;;;;4730116;30;20045;-46
2023/12/06 09:50:10;;;;;;;9.68;5.03;;;3.50;99.90;;;;;;4729514;30;20136;-47
2023/12/06 09:52:38;;;;;;;9.25;4.72;;;3.60;99.90;;;;;;4720291;30;20661;-49
2023/12/06 09:55:05;;;;;;;8.05;5.32;;;3.60;99.90;;;;;;4728139;30;20108;-47
2023/12/06 09:57:33;;;;;;;9.32;5.18;;;3.70;99.90;;;;;;4727947;30;20080;-49
2023/12/06 10:00:00;;;;;;;9.40;5.38;;;3.70;99.90;;;;;;4729612;30;20508;-45
2023/12/06 10:02:54;;;;;;;7.75;4.93;;;3.70;99.90;;;;;;4724509;30;20076;-48
2023/12/06 10:05:21;;;;;;;6.57;4.20;;;3.70;99.90;;;;;;4729141;30;20052;-49
2023/12/06 10:07:49;;;;;;;7.20;4.57;;;3.70;99.90;;;;;;4722245;30;20053;-51
2023/12/06 10:10:18;;;;;;;11.15;6.35;;;3.70;99.90;;;;;;4726664;30;20515;-50
2023/12/06 10:12:47;;;;;;;9.05;5.97;;;3.70;99.90;;;;;;4726999;30;20052;-48
2023/12/06 10:15:17;;;;;;;7.53;5.60;;;3.70;99.90;;;;;;4729724;30;20110;-52
2023/12/06 10:17:45;;;;;;;9.20;5.20;;;3.70;99.90;;;;;;4718548;30;20424;-52
2023/12/06 10:20:13;;;;;;;9.15;5.65;;;3.70;99.90;;;;;;4727420;30;20078;-51
2023/12/06 10:22:41;;;;;;;9.73;6.18;;;3.70;99.90;;;;;;4727028;30;20108;-53
2023/12/06 10:25:08;;;;;;;10.13;6.07;;;3.80;99.90;;;;;;4711701;30;20420;-53
2023/12/06 10:27:36;;;;;;;9.23;5.65;;;3.80;99.90;;;;;;4733732;30;20152;-49
2023/12/06 10:30:05;;;;;;;9.05;5.85;;;3.80;99.90;;;;;;4728179;30;20079;-50
2023/12/06 10:32:35;;;;;;;9.73;5.93;;;3.80;99.90;;;;;;4725650;30;20154;-51
2023/12/06 10:35:09;;;;;;;8.88;5.55;;;3.80;99.90;;;;;;4725839;30;20172;-52
2023/12/06 10:37:36;;;;;;;8.30;5.32;;;3.90;99.90;;;;;;4727263;30;20176;-51
2023/12/06 10:40:11;;;;;;;9.18;6.63;;;3.90;99.90;;;;;;4726523;30;20079;-51
2023/12/06 10:42:45;;;;;;;10.35;6.25;;;3.90;99.90;;;;;;4722947;30;20064;-50
2023/12/06 10:45:14;;;;;;;11.18;6.95;;;3.90;99.90;;;;;;4725959;30;20063;-53
2023/12/06 10:47:43;;;;;;;11.52;6.68;;;3.90;99.90;;;;;;4727772;30;20052;-51
2023/12/06 10:50:11;;;;;;;13.30;7.53;;;3.90;99.90;;;;;;4718002;30;20169;-52
2023/12/06 10:52:40;;;;;;;10.27;6.90;;;3.90;99.90;;;;;;4719002;30;20049;-51
2023/12/06 10:55:09;;;;;;;11.27;7.32;;;3.90;99.90;;;;;;4717600;30;20443;-52
2023/12/06 10:57:37;;;;;;;14.93;7.28;;;3.80;99.90;;;;;;4725917;30;20053;-53
2023/12/06 11:00:06;;;;;;;9.32;7.05;;;3.80;99.90;;;;;;4728449;30;20231;-50
2023/12/06 11:02:33;;;;;;;10.77;6.97;;;3.80;99.90;;;;;;4728264;30;20331;-53
2023/12/06 11:05:05;;;;;;;10.35;6.28;;;3.80;99.90;;;;;;4723300;30;20164;-51
2023/12/06 11:08:04;;;;;;;8.63;6.50;;;3.80;99.90;;;;;;4727538;30;20431;-51
2023/12/06 11:10:47;;;;;;;8.60;6.35;;;3.80;99.90;;;;;;4722869;30;20049;-54
2023/12/06 11:13:58;;;;;;;10.52;5.97;;;3.80;99.90;;;;;;4729892;30;20053;-53
2023/12/06 11:16:37;;;;;;;7.93;5.45;;;3.80;99.90;;;;;;4716580;30;21621;-49
2023/12/06 11:19:05;;;;;;;8.52;5.88;;;3.80;99.90;;;;;;4723975;30;20148;-50
2023/12/06 11:21:32;;;;;;;8.88;6.10;;;3.80;99.90;;;;;;4731051;30;20424;-50
2023/12/06 11:24:00;;;;;;;8.30;5.55;;;3.80;99.90;;;;;;4727999;30;20446;-50
2023/12/06 11:26:27;;;;;;;9.32;5.07;;;3.80;99.90;;;;;;4733320;30;20060;-49
2023/12/06 11:28:56;;;;;;;7.95;5.32;;;3.80;99.90;;;;;;4730340;30;20059;-53
2023/12/06 11:31:36;;;;;;;7.20;4.70;;;3.80;99.90;;;;;;4713950;30;20065;-51
2023/12/06 11:34:11;;;;;;;7.57;4.30;;;3.80;99.90;;;;;;4731225;30;20055;-51
2023/12/06 11:36:39;;;;;;;7.53;4.35;;;3.80;99.90;;;;;;4729834;30;20083;-53
2023/12/06 11:39:16;;;;;;;7.65;4.43;;;3.80;99.90;;;;;;4729941;30;20114;-51
2023/12/06 11:41:53;;;;;;;7.30;4.43;;;3.80;99.90;;;;;;4734098;30;20056;-49
2023/12/06 11:44:20;;;;;;;6.93;4.57;;;3.80;99.90;;;;;;4728149;30;20064;-52
2023/12/06 11:46:53;;;;;;;9.43;4.97;;;3.80;99.90;;;;;;4732109;30;20487;-49
2023/12/06 11:49:25;;;;;;;6.78;4.40;;;3.90;99.90;;;;;;4712129;30;20325;-47
2023/12/06 11:52:00;;;;;;;6.93;4.78;;;3.90;99.90;;;;;;4722038;30;20135;-52
2023/12/06 11:54:31;;;;;;;7.47;5.05;;;3.90;99.90;;;;;;4730719;30;20076;-54
2023/12/06 11:57:06;;;;;;;5.68;3.58;;;4.00;99.90;;;;;;4713867;30;20095;-49
2023/12/06 11:59:35;;;;;;;5.88;3.75;;;3.90;99.90;;;;;;4713695;30;20123;-49
2023/12/06 12:02:02;;;;;;;6.25;3.80;;;3.90;99.90;;;;;;4714042;30;20135;-49
2023/12/06 12:04:30;;;;;;;6.30;4.05;;;4.00;99.90;;;;;;4728223;30;20289;-52
2023/12/06 12:07:01;;;;;;;5.40;3.83;;;3.90;99.90;;;;;;4715008;30;20143;-52
2023/12/06 12:09:29;;;;;;;7.40;4.15;;;4.00;99.90;;;;;;4711199;30;20650;-51
2023/12/06 12:11:57;;;;;;;7.70;4.63;;;3.90;99.90;;;;;;4700236;30;20049;-54
2023/12/06 12:14:32;;;;;;;8.13;4.80;;;4.00;99.90;;;;;;4715166;30;20128;-52
2023/12/06 12:17:01;;;;;;;7.00;3.10;;;3.80;99.90;;;;;;4713379;30;20462;-51
2023/12/06 12:19:28;;;;;;;6.13;3.50;;;3.80;99.90;;;;;;4723164;30;20056;-49
2023/12/06 12:22:03;;;;;;;6.20;3.42;;;3.70;99.90;;;;;;4730392;30;20072;-49
2023/12/06 12:24:32;;;;;;;5.07;2.85;;;3.70;99.90;;;;;;4712195;30;20055;-50
2023/12/06 12:26:59;;;;;;;6.15;3.00;;;3.60;99.90;;;;;;4731536;30;20084;-48
2023/12/06 12:29:26;;;;;;;4.80;3.00;;;3.50;99.90;;;;;;4715596;30;20156;-46
2023/12/06 12:31:54;;;;;;;5.32;2.92;;;3.60;99.90;;;;;;4728797;30;20737;-49
2023/12/06 12:34:21;;;;;;;6.90;3.60;;;3.50;99.90;;;;;;4729512;30;20395;-46
2023/12/06 12:36:49;;;;;;;6.55;3.42;;;3.50;99.90;;;;;;4729764;30;20076;-48
2023/12/06 12:39:17;;;;;;;6.38;3.15;;;3.50;99.90;;;;;;4716093;30;20148;-49
2023/12/06 12:41:45;;;;;;;5.72;3.25;;;3.50;99.90;;;;;;4730285;30;20049;-51
2023/12/06 12:44:12;;;;;;;5.55;3.38;;;3.50;99.90;;;;;;4727657;30;20144;-47
2023/12/06 12:46:40;;;;;;;5.50;3.42;;;3.40;99.90;;;;;;4732102;30;20123;-52
2023/12/06 12:49:18;;;;;;;6.10;3.92;;;3.40;99.90;;;;;;4713886;30;20052;-49
2023/12/06 12:51:47;;;;;;;5.70;3.65;;;3.40;99.90;;;;;;4719597;30;20083;-47
2023/12/06 12:54:16;;;;;;;5.18;3.55;;;3.40;99.90;;;;;;4712485;30;20143;-50
2023/12/06 12:56:43;;;;;;;5.60;3.30;;;3.40;99.90;;;;;;4717873;30;20053;-50
2023/12/06 12:59:10;;;;;;;5.18;3.20;;;3.40;99.90;;;;;;4726828;30;20080;-51